createdAt,value
2016-06-16T00:00:41.834Z,995.67
2016-06-16T00:01:41.885Z,995.66
2016-06-16T00:02:41.919Z,995.61
2016-06-16T00:03:41.969Z,995.63
2016-06-16T00:04:42.033Z,995.66
2016-06-16T00:05:42.068Z,995.64
2016-06-16T00:06:42.119Z,995.61
2016-06-16T00:07:42.153Z,995.63
2016-06-16T00:08:42.203Z,995.65
2016-06-16T00:09:42.253Z,995.6
2016-06-16T00:10:42.302Z,995.61
2016-06-16T00:11:42.337Z,995.58
2016-06-16T00:12:42.387Z,995.57
2016-06-16T00:13:42.437Z,995.57
2016-06-16T00:14:42.471Z,995.54
2016-06-16T00:15:42.521Z,995.57
2016-06-16T00:16:42.571Z,995.56
2016-06-16T00:17:42.606Z,995.57
2016-06-16T00:18:42.670Z,995.56
2016-06-16T00:19:42.705Z,995.6
2016-06-16T00:20:42.755Z,995.55
2016-06-16T00:21:42.805Z,995.57
2016-06-16T00:22:42.855Z,995.6
2016-06-16T00:23:42.889Z,995.58
2016-06-16T00:24:42.939Z,995.6
2016-06-16T00:25:42.989Z,995.62
2016-06-16T00:26:43.023Z,995.65
2016-06-16T00:27:43.073Z,995.65
2016-06-16T00:28:43.123Z,995.66
2016-06-16T00:29:43.173Z,995.68
2016-06-16T00:30:43.208Z,995.65
2016-06-16T00:31:43.258Z,995.62
2016-06-16T00:32:43.308Z,995.66
2016-06-16T00:33:43.357Z,995.65
2016-06-16T00:34:43.392Z,995.66
2016-06-16T00:35:43.442Z,995.64
2016-06-16T00:36:43.492Z,995.65
2016-06-16T00:37:43.542Z,995.68
2016-06-16T00:38:43.576Z,995.66
2016-06-16T00:39:43.626Z,995.71
2016-06-16T00:40:43.691Z,995.68
2016-06-16T00:41:43.711Z,995.71
2016-06-16T00:42:43.760Z,995.74
2016-06-16T00:43:43.810Z,995.7
2016-06-16T00:44:43.861Z,995.66
2016-06-16T00:45:43.910Z,995.67
2016-06-16T00:46:43.944Z,995.66
2016-06-16T00:47:43.995Z,995.65
2016-06-16T00:48:44.044Z,995.63
2016-06-16T00:49:44.079Z,995.63
2016-06-16T00:50:44.129Z,995.6
2016-06-16T00:51:44.178Z,995.61
2016-06-16T00:52:44.213Z,995.6
2016-06-16T00:53:44.263Z,995.6
2016-06-16T00:54:44.312Z,995.63
2016-06-16T00:55:44.363Z,995.64
2016-06-16T00:56:44.397Z,995.66
2016-06-16T00:57:44.447Z,995.65
2016-06-16T00:58:44.497Z,995.68
2016-06-16T00:59:44.547Z,995.65
2016-06-16T01:00:44.580Z,995.64
2016-06-16T01:01:44.631Z,995.64
2016-06-16T01:02:44.681Z,995.64
2016-06-16T01:03:44.715Z,995.62
2016-06-16T01:04:44.765Z,995.64
2016-06-16T01:05:44.815Z,995.61
2016-06-16T01:06:44.849Z,995.62
2016-06-16T01:07:44.899Z,995.67
2016-06-16T01:08:44.950Z,995.63
2016-06-16T01:09:44.999Z,995.66
2016-06-16T01:10:45.066Z,995.66
2016-06-16T01:11:45.147Z,995.68
2016-06-16T01:12:45.134Z,995.66
2016-06-16T01:13:45.167Z,995.6
2016-06-16T01:14:45.218Z,995.64
2016-06-16T01:15:45.268Z,995.57
2016-06-16T01:16:45.302Z,995.55
2016-06-16T01:17:45.352Z,995.58
2016-06-16T01:18:45.402Z,995.56
2016-06-16T01:19:45.452Z,995.55
2016-06-16T01:20:45.487Z,995.52
2016-06-16T01:21:45.536Z,995.52
2016-06-16T01:22:45.586Z,995.52
2016-06-16T01:23:45.636Z,995.53
2016-06-16T01:24:45.670Z,995.47
2016-06-16T01:25:45.721Z,995.53
2016-06-16T01:26:45.786Z,995.47
2016-06-16T01:27:45.805Z,995.5
2016-06-16T01:28:45.854Z,995.52
2016-06-16T01:29:45.905Z,995.52
2016-06-16T01:30:45.939Z,995.53
2016-06-16T01:31:45.989Z,995.48
2016-06-16T01:32:46.039Z,995.46
2016-06-16T01:33:46.089Z,995.48
2016-06-16T01:34:46.139Z,995.5
2016-06-16T01:35:46.173Z,995.5
2016-06-16T01:36:46.223Z,995.49
2016-06-16T01:37:46.273Z,995.48
2016-06-16T01:38:46.308Z,995.49
2016-06-16T01:39:46.357Z,995.51
2016-06-16T01:40:46.469Z,995.51
2016-06-16T01:41:46.457Z,995.52
2016-06-16T01:42:46.492Z,995.52
2016-06-16T01:43:46.542Z,995.53
2016-06-16T01:44:46.576Z,995.57
2016-06-16T01:45:46.626Z,995.55
2016-06-16T01:46:46.676Z,995.58
2016-06-16T01:47:46.725Z,995.55
2016-06-16T01:48:46.775Z,995.58
2016-06-16T01:49:46.811Z,995.53
2016-06-16T01:50:46.859Z,995.53
2016-06-16T01:51:46.894Z,995.51
2016-06-16T01:52:46.945Z,995.51
2016-06-16T01:53:46.979Z,995.49
2016-06-16T01:54:47.028Z,995.49
2016-06-16T01:55:47.078Z,995.46
2016-06-16T01:56:47.128Z,995.45
2016-06-16T01:57:47.163Z,995.45
2016-06-16T01:58:47.213Z,995.47
2016-06-16T01:59:47.262Z,995.47
2016-06-16T02:00:47.312Z,995.46
2016-06-16T02:01:47.362Z,995.46
2016-06-16T02:02:47.397Z,995.5
2016-06-16T02:03:47.431Z,995.49
2016-06-16T02:04:47.497Z,995.53
2016-06-16T02:05:47.530Z,995.53
2016-06-16T02:06:47.566Z,995.53
2016-06-16T02:07:47.630Z,995.56
2016-06-16T02:08:47.665Z,995.58
2016-06-16T02:09:47.715Z,995.59
2016-06-16T02:10:47.828Z,995.54
2016-06-16T02:11:47.815Z,995.55
2016-06-16T02:12:47.849Z,995.59
2016-06-16T02:13:47.899Z,995.56
2016-06-16T02:14:47.933Z,995.54
2016-06-16T02:15:47.983Z,995.53
2016-06-16T02:16:48.034Z,995.53
2016-06-16T02:17:48.067Z,995.51
2016-06-16T02:18:48.117Z,995.55
2016-06-16T02:19:48.168Z,995.6
2016-06-16T02:20:48.202Z,995.6
2016-06-16T02:21:48.251Z,995.59
2016-06-16T02:22:48.302Z,995.62
2016-06-16T02:23:48.336Z,995.63
2016-06-16T02:24:48.386Z,995.62
2016-06-16T02:25:48.452Z,995.61
2016-06-16T02:26:48.486Z,995.63
2016-06-16T02:27:48.520Z,995.59
2016-06-16T02:28:48.571Z,995.61
2016-06-16T02:29:48.604Z,995.58
2016-06-16T02:30:48.654Z,995.57
2016-06-16T02:31:48.704Z,995.59
2016-06-16T02:32:48.739Z,995.6
2016-06-16T02:33:48.804Z,995.62
2016-06-16T02:34:48.839Z,995.57
2016-06-16T02:35:48.889Z,995.62
2016-06-16T02:36:48.939Z,995.61
2016-06-16T02:37:48.973Z,995.62
2016-06-16T02:38:49.023Z,995.6
2016-06-16T02:39:49.057Z,995.59
2016-06-16T02:40:49.107Z,995.58
2016-06-16T02:41:49.157Z,995.56
2016-06-16T02:42:49.191Z,995.59
2016-06-16T02:43:49.241Z,995.6
2016-06-16T02:44:49.292Z,995.59
2016-06-16T02:45:49.342Z,995.62
2016-06-16T02:46:49.375Z,995.66
2016-06-16T02:47:49.425Z,995.64
2016-06-16T02:48:49.460Z,995.67
2016-06-16T02:49:49.510Z,995.69
2016-06-16T02:50:49.559Z,995.7
2016-06-16T02:51:49.610Z,995.74
2016-06-16T02:52:49.660Z,995.68
2016-06-16T02:53:49.694Z,995.75
2016-06-16T02:54:49.744Z,995.75
2016-06-16T02:55:49.779Z,995.74
2016-06-16T02:56:49.969Z,995.8
2016-06-16T02:57:49.878Z,995.72
2016-06-16T02:58:49.913Z,995.74
2016-06-16T02:59:50.010Z,995.72
2016-06-16T03:00:50.013Z,995.72
2016-06-16T03:01:50.063Z,995.73
2016-06-16T03:02:50.097Z,995.76
2016-06-16T03:03:50.147Z,995.74
2016-06-16T03:04:50.181Z,995.78
2016-06-16T03:05:50.231Z,995.79
2016-06-16T03:06:50.265Z,995.71
2016-06-16T03:07:50.316Z,995.77
2016-06-16T03:08:50.365Z,995.76
2016-06-16T03:09:50.415Z,995.8
2016-06-16T03:10:50.449Z,995.81
2016-06-16T03:11:50.500Z,995.81
2016-06-16T03:12:50.550Z,995.81
2016-06-16T03:13:50.583Z,995.81
2016-06-16T03:14:50.633Z,995.82
2016-06-16T03:15:50.684Z,995.8
2016-06-16T03:16:50.718Z,995.82
2016-06-16T03:17:50.768Z,995.84
2016-06-16T03:18:50.818Z,995.84
2016-06-16T03:19:50.868Z,995.84
2016-06-16T03:20:50.902Z,995.84
2016-06-16T03:21:50.952Z,995.88
2016-06-16T03:22:51.002Z,995.82
2016-06-16T03:23:51.052Z,995.87
2016-06-16T03:24:51.087Z,995.89
2016-06-16T03:25:51.120Z,995.85
2016-06-16T03:26:51.186Z,995.89
2016-06-16T03:27:51.221Z,995.86
2016-06-16T03:28:51.255Z,995.84
2016-06-16T03:29:51.304Z,995.88
2016-06-16T03:30:51.355Z,995.81
2016-06-16T03:31:51.405Z,995.82
2016-06-16T03:32:51.439Z,995.87
2016-06-16T03:33:51.473Z,995.87
2016-06-16T03:34:51.539Z,995.89
2016-06-16T03:35:51.573Z,995.91
2016-06-16T03:36:51.624Z,995.89
2016-06-16T03:37:51.673Z,995.9
2016-06-16T03:38:51.707Z,995.88
2016-06-16T03:39:51.757Z,995.89
2016-06-16T03:40:51.807Z,995.92
2016-06-16T03:41:51.858Z,995.87
2016-06-16T03:42:51.891Z,995.92
2016-06-16T03:43:51.941Z,995.9
2016-06-16T03:44:51.976Z,995.88
2016-06-16T03:45:52.025Z,995.86
2016-06-16T03:46:52.076Z,995.86
2016-06-16T03:47:52.126Z,995.82
2016-06-16T03:48:52.160Z,995.82
2016-06-16T03:49:52.210Z,995.8
2016-06-16T03:50:52.261Z,995.78
2016-06-16T03:51:52.294Z,995.75
2016-06-16T03:52:52.328Z,995.8
2016-06-16T03:53:52.378Z,995.77
2016-06-16T03:54:52.429Z,995.76
2016-06-16T03:55:52.478Z,995.72
2016-06-16T03:56:52.513Z,995.72
2016-06-16T03:57:52.563Z,995.73
2016-06-16T03:58:52.613Z,995.76
2016-06-16T03:59:52.694Z,995.75
2016-06-16T04:00:52.697Z,995.74
2016-06-16T04:01:52.747Z,995.79
2016-06-16T04:02:52.781Z,995.75
2016-06-16T04:03:52.832Z,995.72
2016-06-16T04:04:52.896Z,995.74
2016-06-16T04:05:52.931Z,995.73
2016-06-16T04:06:52.965Z,995.75
2016-06-16T04:07:53.016Z,995.75
2016-06-16T04:08:53.049Z,995.73
2016-06-16T04:09:53.115Z,995.78
2016-06-16T04:10:53.150Z,995.73
2016-06-16T04:11:53.200Z,995.73
2016-06-16T04:12:53.250Z,995.73
2016-06-16T04:13:53.283Z,995.74
2016-06-16T04:14:53.334Z,995.71
2016-06-16T04:15:53.384Z,995.8
2016-06-16T04:16:53.437Z,995.81
2016-06-16T04:17:53.511Z,995.79
2016-06-16T04:18:53.616Z,995.77
2016-06-16T04:19:53.690Z,995.81
2016-06-16T04:20:53.780Z,995.85
2016-06-16T04:21:53.859Z,995.85
2016-06-16T04:22:53.907Z,995.86
2016-06-16T04:23:53.971Z,995.85
2016-06-16T04:24:54.036Z,995.88
2016-06-16T04:25:54.084Z,995.9
2016-06-16T04:26:54.597Z,995.95
2016-06-16T04:27:54.199Z,995.92
2016-06-16T04:28:54.238Z,995.94
2016-06-16T04:29:54.293Z,995.96
2016-06-16T04:30:54.348Z,995.98
2016-06-16T04:31:54.386Z,996.02
2016-06-16T04:32:54.438Z,996.03
2016-06-16T04:33:54.490Z,996.07
2016-06-16T04:34:54.541Z,996.05
2016-06-16T04:35:54.592Z,996.02
2016-06-16T04:36:54.629Z,996.03
2016-06-16T04:37:54.679Z,996.04
2016-06-16T04:38:54.730Z,996.1
2016-06-16T04:39:54.766Z,996.11
2016-06-16T04:40:54.816Z,996.17
2016-06-16T04:41:54.866Z,996.21
2016-06-16T04:42:54.902Z,996.23
2016-06-16T04:43:54.951Z,996.2
2016-06-16T04:44:55.002Z,996.27
2016-06-16T04:45:55.052Z,996.26
2016-06-16T04:46:55.086Z,996.26
2016-06-16T04:47:55.136Z,996.29
2016-06-16T04:48:55.172Z,996.35
2016-06-16T04:49:55.236Z,996.37
2016-06-16T04:50:55.271Z,996.47
2016-06-16T04:51:55.321Z,996.48
2016-06-16T04:52:55.371Z,996.52
2016-06-16T04:53:55.405Z,996.53
2016-06-16T04:54:55.455Z,996.59
2016-06-16T04:55:55.505Z,996.57
2016-06-16T04:56:55.539Z,996.62
2016-06-16T04:57:55.590Z,996.66
2016-06-16T04:58:55.639Z,996.69
2016-06-16T04:59:55.720Z,996.67
2016-06-16T05:00:55.723Z,996.76
2016-06-16T05:01:55.773Z,996.69
2016-06-16T05:02:55.807Z,996.76
2016-06-16T05:03:55.858Z,996.71
2016-06-16T05:04:55.908Z,996.73
2016-06-16T05:05:55.941Z,996.73
2016-06-16T05:06:56.008Z,996.73
2016-06-16T05:07:56.042Z,996.76
2016-06-16T05:08:56.076Z,996.8
2016-06-16T05:09:56.126Z,996.78
2016-06-16T05:10:56.176Z,996.81
2016-06-16T05:11:56.663Z,996.82
2016-06-16T05:12:56.277Z,996.78
2016-06-16T05:13:56.311Z,996.76
2016-06-16T05:14:56.377Z,996.73
2016-06-16T05:15:56.411Z,996.74
2016-06-16T05:16:56.444Z,996.73
2016-06-16T05:17:56.495Z,996.76
2016-06-16T05:18:56.545Z,996.75
2016-06-16T05:19:56.579Z,996.74
2016-06-16T05:20:56.629Z,996.72
2016-06-16T05:21:56.694Z,996.7
2016-06-16T05:22:56.713Z,996.68
2016-06-16T05:23:56.763Z,996.66
2016-06-16T05:24:56.813Z,996.72
2016-06-16T05:25:56.863Z,996.71
2016-06-16T05:26:57.242Z,996.71
2016-06-16T05:27:56.948Z,996.69
2016-06-16T05:28:57.013Z,996.65
2016-06-16T05:29:57.031Z,996.69
2016-06-16T05:30:57.096Z,996.64
2016-06-16T05:31:57.132Z,996.64
2016-06-16T05:32:57.244Z,996.66
2016-06-16T05:33:57.231Z,996.73
2016-06-16T05:34:57.297Z,996.67
2016-06-16T05:35:57.316Z,996.71
2016-06-16T05:36:57.365Z,996.65
2016-06-16T05:37:57.415Z,996.7
2016-06-16T05:38:57.481Z,996.64
2016-06-16T05:39:57.515Z,996.68
2016-06-16T05:40:57.549Z,996.64
2016-06-16T05:41:57.599Z,996.63
2016-06-16T05:42:57.650Z,996.65
2016-06-16T05:43:57.684Z,996.66
2016-06-16T05:44:57.734Z,996.62
2016-06-16T05:45:57.784Z,996.65
2016-06-16T05:46:57.818Z,996.63
2016-06-16T05:47:57.867Z,996.65
2016-06-16T05:48:57.918Z,996.65
2016-06-16T05:49:57.968Z,996.64
2016-06-16T05:50:58.018Z,996.64
2016-06-16T05:51:58.052Z,996.64
2016-06-16T05:52:58.102Z,996.62
2016-06-16T05:53:58.152Z,996.66
2016-06-16T05:54:58.187Z,996.57
2016-06-16T05:55:58.237Z,996.64
2016-06-16T05:56:58.287Z,996.59
2016-06-16T05:57:58.337Z,996.61
2016-06-16T05:58:58.371Z,996.61
2016-06-16T05:59:58.482Z,996.56
2016-06-16T06:00:58.470Z,996.63
2016-06-16T06:01:58.505Z,996.61
2016-06-16T06:02:58.570Z,996.61
2016-06-16T06:03:58.605Z,996.64
2016-06-16T06:04:58.655Z,996.61
2016-06-16T06:05:58.704Z,996.59
2016-06-16T06:06:58.739Z,996.62
2016-06-16T06:07:58.790Z,996.6
2016-06-16T06:08:58.839Z,996.62
2016-06-16T06:09:58.889Z,996.61
2016-06-16T06:10:58.939Z,996.62
2016-06-16T06:11:58.973Z,996.64
2016-06-16T06:12:59.022Z,996.65
2016-06-16T06:13:59.072Z,996.61
2016-06-16T06:14:59.123Z,996.61
2016-06-16T06:15:59.157Z,996.66
2016-06-16T06:16:59.207Z,996.65
2016-06-16T06:17:59.257Z,996.71
2016-06-16T06:18:59.307Z,996.72
2016-06-16T06:19:59.358Z,996.72
2016-06-16T06:20:59.407Z,996.73
2016-06-16T06:21:59.442Z,996.71
2016-06-16T06:22:59.491Z,996.72
2016-06-16T06:23:59.542Z,996.68
2016-06-16T06:24:59.591Z,996.7
2016-06-16T06:25:59.641Z,996.7
2016-06-16T06:26:59.676Z,996.74
2016-06-16T06:27:59.726Z,996.71
2016-06-16T06:28:59.775Z,996.8
2016-06-16T06:29:59.810Z,996.79
2016-06-16T06:30:59.875Z,996.8
2016-06-16T06:31:59.909Z,996.83
2016-06-16T06:32:59.959Z,996.81
2016-06-16T06:34:00.009Z,996.78
2016-06-16T06:35:00.060Z,996.76
2016-06-16T06:36:00.094Z,996.79
2016-06-16T06:37:00.160Z,996.79
2016-06-16T06:38:00.193Z,996.82
2016-06-16T06:39:00.243Z,996.85
2016-06-16T06:40:00.294Z,996.86
2016-06-16T06:41:00.344Z,996.87
2016-06-16T06:42:00.706Z,996.9
2016-06-16T06:43:00.428Z,996.94
2016-06-16T06:44:00.478Z,996.89
2016-06-16T06:45:00.528Z,996.9
2016-06-16T06:46:00.577Z,996.91
2016-06-16T06:47:00.612Z,996.9
2016-06-16T06:48:00.662Z,996.93
2016-06-16T06:49:00.712Z,996.93
2016-06-16T06:50:00.762Z,996.92
2016-06-16T06:51:00.812Z,996.93
2016-06-16T06:52:00.861Z,996.88
2016-06-16T06:53:00.896Z,996.89
2016-06-16T06:54:00.945Z,996.92
2016-06-16T06:55:00.996Z,996.93
2016-06-16T06:56:01.062Z,996.92
2016-06-16T06:57:01.096Z,996.9
2016-06-16T06:58:01.146Z,996.91
2016-06-16T06:59:01.196Z,996.89
2016-06-16T07:00:01.292Z,996.91
2016-06-16T07:01:01.280Z,996.96
2016-06-16T07:02:01.330Z,996.92
2016-06-16T07:03:01.380Z,996.93
2016-06-16T07:04:01.415Z,996.91
2016-06-16T07:05:01.479Z,996.9
2016-06-16T07:06:01.529Z,996.88
2016-06-16T07:07:01.564Z,996.87
2016-06-16T07:08:01.614Z,996.81
2016-06-16T07:09:01.664Z,996.79
2016-06-16T07:10:01.714Z,996.76
2016-06-16T07:11:01.764Z,996.77
2016-06-16T07:12:01.814Z,996.69
2016-06-16T07:13:01.864Z,996.7
2016-06-16T07:14:01.898Z,996.69
2016-06-16T07:15:01.948Z,996.68
2016-06-16T07:16:01.999Z,996.72
2016-06-16T07:17:02.048Z,996.69
2016-06-16T07:18:02.098Z,996.66
2016-06-16T07:19:02.147Z,996.63
2016-06-16T07:20:02.198Z,996.64
2016-06-16T07:21:02.248Z,996.59
2016-06-16T07:22:02.298Z,996.58
2016-06-16T07:23:02.348Z,996.61
2016-06-16T07:24:02.398Z,996.65
2016-06-16T07:25:02.433Z,996.63
2016-06-16T07:26:02.482Z,996.6
2016-06-16T07:27:02.532Z,996.62
2016-06-16T07:28:02.581Z,996.62
2016-06-16T07:29:02.631Z,996.6
2016-06-16T07:30:02.682Z,996.58
2016-06-16T07:31:02.715Z,996.53
2016-06-16T07:32:02.765Z,996.53
2016-06-16T07:33:02.831Z,996.48
2016-06-16T07:34:02.866Z,996.46
2016-06-16T07:48:36.724Z,996.45
2016-06-16T07:48:36.833Z,996.52
2016-06-16T07:48:47.896Z,996.57
2016-06-16T07:49:47.946Z,996.61
2016-06-16T07:50:47.980Z,996.58
2016-06-16T07:51:48.030Z,996.59
2016-06-16T07:52:48.080Z,996.6
2016-06-16T07:53:48.130Z,996.59
2016-06-16T07:54:48.180Z,996.64
2016-06-16T07:55:48.246Z,996.59
2016-06-16T07:56:48.280Z,996.56
2016-06-16T07:57:48.329Z,996.56
2016-06-16T07:58:48.379Z,996.57
2016-06-16T07:59:48.430Z,996.58
2016-06-16T08:00:48.542Z,996.6
2016-06-16T08:01:48.530Z,996.6
2016-06-16T08:02:48.579Z,996.58
2016-06-16T08:03:48.629Z,996.55
2016-06-16T08:04:48.695Z,996.57
2016-06-16T08:05:48.729Z,996.58
2016-06-16T08:06:48.780Z,996.56
2016-06-16T08:07:48.830Z,996.61
2016-06-16T08:08:48.880Z,996.64
2016-06-16T08:09:48.914Z,996.61
2016-06-16T08:10:48.964Z,996.61
2016-06-16T08:11:49.028Z,996.59
2016-06-16T08:12:49.079Z,996.57
2016-06-16T08:13:49.129Z,996.56
2016-06-16T08:14:49.178Z,996.56
2016-06-16T08:15:49.229Z,996.57
2016-06-16T08:16:49.279Z,996.58
2016-06-16T08:17:49.329Z,996.56
2016-06-16T08:18:49.379Z,996.58
2016-06-16T08:19:49.413Z,996.6
2016-06-16T08:20:49.463Z,996.56
2016-06-16T08:21:49.529Z,996.53
2016-06-16T08:22:49.562Z,996.57
2016-06-16T08:23:49.629Z,996.49
2016-06-16T08:24:49.662Z,996.5
2016-06-16T08:25:49.712Z,996.48
2016-06-16T08:26:49.777Z,996.49
2016-06-16T08:27:49.828Z,996.43
2016-06-16T08:28:49.863Z,996.41
2016-06-16T08:29:49.928Z,996.43
2016-06-16T08:30:49.962Z,996.39
2016-06-16T08:31:50.028Z,996.38
2016-06-16T08:32:50.078Z,996.38
2016-06-16T08:33:50.128Z,996.37
2016-06-16T08:34:50.178Z,996.34
2016-06-16T08:35:50.228Z,996.37
2016-06-16T08:36:50.263Z,996.38
2016-06-16T08:37:50.327Z,996.42
2016-06-16T08:38:50.378Z,996.45
2016-06-16T08:39:50.428Z,996.49
2016-06-16T08:40:50.478Z,996.52
2016-06-16T08:41:50.528Z,996.52
2016-06-16T08:42:50.578Z,996.55
2016-06-16T08:43:50.628Z,996.58
2016-06-16T08:44:50.678Z,996.59
2016-06-16T08:45:50.712Z,996.59
2016-06-16T08:46:50.778Z,996.64
2016-06-16T08:47:50.827Z,996.69
2016-06-16T08:48:26.456Z,996.92
2016-06-16T08:49:26.521Z,996.92
2016-06-16T08:50:26.557Z,996.94
2016-06-16T08:51:26.605Z,996.92
2016-06-16T08:52:26.671Z,996.92
2016-06-16T08:53:26.722Z,996.92
2016-06-16T08:54:26.756Z,996.9
2016-06-16T08:55:26.806Z,996.89
2016-06-16T08:56:26.917Z,996.9
2016-06-16T08:57:26.906Z,996.91
2016-06-16T08:58:26.955Z,996.91
2016-06-16T08:59:27.021Z,996.96
2016-06-16T09:00:27.071Z,996.96
2016-06-16T09:01:27.105Z,996.92
2016-06-16T09:02:27.171Z,996.91
2016-06-16T09:03:27.221Z,996.91
2016-06-16T09:04:27.255Z,996.87
2016-06-16T09:05:27.321Z,996.88
2016-06-16T09:06:27.370Z,996.87
2016-06-16T09:07:27.404Z,996.81
2016-06-16T09:08:27.470Z,996.78
2016-06-16T09:09:27.521Z,996.79
2016-06-16T09:10:27.555Z,996.73
2016-06-16T09:11:27.605Z,996.7
2016-06-16T09:12:27.654Z,996.69
2016-06-16T09:13:27.720Z,996.65
2016-06-16T09:14:27.770Z,996.67
2016-06-16T09:15:27.820Z,996.69
2016-06-16T09:16:27.870Z,996.71
2016-06-16T09:17:27.920Z,996.73
2016-06-16T09:18:27.970Z,996.71
2016-06-16T09:19:28.021Z,996.73
2016-06-16T09:20:28.069Z,996.75
2016-06-16T09:21:28.120Z,996.74
2016-06-16T09:22:28.169Z,996.73
2016-06-16T09:23:28.235Z,996.69
2016-06-16T09:24:28.270Z,996.68
2016-06-16T09:25:28.335Z,996.68
2016-06-16T09:26:28.385Z,996.73
2016-06-16T09:27:28.420Z,996.76
2016-06-16T09:28:28.501Z,996.74
2016-06-16T09:29:28.535Z,996.74
2016-06-16T09:30:28.585Z,996.74
2016-06-16T09:31:28.635Z,996.78
2016-06-16T09:32:28.685Z,996.82
2016-06-16T09:33:28.735Z,996.76
2016-06-16T09:34:28.784Z,996.77
2016-06-16T09:35:28.851Z,996.79
2016-06-16T09:36:28.885Z,996.8
2016-06-16T09:37:28.951Z,996.8
2016-06-16T09:38:28.984Z,996.8
2016-06-16T09:39:29.050Z,996.8
2016-06-16T09:40:29.100Z,996.77
2016-06-16T09:41:29.150Z,996.75
2016-06-16T09:42:29.200Z,996.76
2016-06-16T09:43:29.265Z,996.82
2016-06-16T09:44:29.300Z,996.85
2016-06-16T09:45:29.396Z,996.78
2016-06-16T09:46:29.416Z,996.84
2016-06-16T09:47:29.449Z,996.81
2016-06-16T09:48:29.515Z,996.77
2016-06-16T09:49:29.566Z,996.74
2016-06-16T09:50:29.599Z,996.75
2016-06-16T09:51:29.665Z,996.77
2016-06-16T09:52:29.715Z,996.77
2016-06-16T09:53:29.781Z,996.71
2016-06-16T09:54:29.814Z,996.7
2016-06-16T09:55:29.865Z,996.7
2016-06-16T09:56:29.993Z,996.69
2016-06-16T09:57:29.980Z,996.67
2016-06-16T09:58:30.030Z,996.7
2016-06-16T09:59:30.080Z,996.67
2016-06-16T10:00:30.146Z,996.71
2016-06-16T10:01:30.195Z,996.68
2016-06-16T10:02:30.231Z,996.77
2016-06-16T10:03:30.296Z,996.71
2016-06-16T10:04:30.346Z,996.75
2016-06-16T10:05:30.396Z,996.72
2016-06-16T10:06:30.461Z,996.77
2016-06-16T10:07:30.495Z,996.75
2016-06-16T10:08:30.780Z,996.84
2016-06-16T10:09:30.611Z,996.8
2016-06-16T10:10:30.661Z,996.77
2016-06-16T10:11:30.726Z,996.7
2016-06-16T10:12:30.761Z,996.69
2016-06-16T10:13:30.826Z,996.73
2016-06-16T10:14:30.877Z,996.72
2016-06-16T10:15:30.943Z,996.79
2016-06-16T10:16:30.976Z,996.81
2016-06-16T10:17:31.042Z,996.82
2016-06-16T10:18:31.076Z,996.83
2016-06-16T10:19:31.142Z,996.82
2016-06-16T10:20:31.192Z,996.87
2016-06-16T10:21:31.242Z,996.85
2016-06-16T10:22:31.307Z,996.88
2016-06-16T10:23:31.357Z,996.94
2016-06-16T10:24:31.407Z,996.87
2016-06-16T10:25:31.457Z,996.95
2016-06-16T10:26:31.507Z,996.92
2016-06-16T10:27:31.558Z,996.93
2016-06-16T10:28:31.622Z,996.94
2016-06-16T10:29:31.657Z,996.88
2016-06-16T10:30:31.723Z,996.92
2016-06-16T10:31:31.773Z,996.9
2016-06-16T10:32:31.823Z,996.91
2016-06-16T10:33:31.888Z,996.95
2016-06-16T10:34:31.937Z,996.92
2016-06-16T10:35:31.988Z,996.9
2016-06-16T10:36:32.053Z,996.87
2016-06-16T10:37:32.103Z,996.9
2016-06-16T10:38:32.153Z,996.89
2016-06-16T10:39:32.203Z,996.92
2016-06-16T10:40:32.254Z,996.89
2016-06-16T10:41:32.303Z,996.84
2016-06-16T10:42:32.353Z,996.84
2016-06-16T10:43:32.418Z,996.8
2016-06-16T10:44:32.469Z,996.81
2016-06-16T10:45:32.519Z,996.79
2016-06-16T10:46:32.584Z,996.8
2016-06-16T10:47:32.634Z,996.79
2016-06-16T10:48:32.684Z,996.76
2016-06-16T10:49:32.734Z,996.79
2016-06-16T10:50:32.800Z,996.76
2016-06-16T10:51:32.834Z,996.75
2016-06-16T10:52:32.899Z,996.75
2016-06-16T10:53:32.949Z,996.75
2016-06-16T10:54:33.000Z,996.79
2016-06-16T10:55:33.049Z,996.77
2016-06-16T10:56:33.147Z,996.77
2016-06-16T10:57:33.165Z,996.76
2016-06-16T10:58:33.215Z,996.79
2016-06-16T10:59:33.264Z,996.76
2016-06-16T11:00:33.331Z,996.76
2016-06-16T11:01:33.380Z,996.78
2016-06-16T11:02:33.430Z,996.76
2016-06-16T11:03:33.481Z,996.81
2016-06-16T11:04:33.530Z,996.78
2016-06-16T11:07:39.196Z,996.8
2016-06-16T11:09:42.468Z,996.79
2016-06-16T11:10:42.502Z,996.81
2016-06-16T11:11:42.552Z,996.78
2016-06-16T11:13:45.793Z,996.73
2016-06-16T11:14:45.858Z,996.77
2016-06-16T11:15:45.908Z,996.79
2016-06-16T11:16:45.942Z,996.73
2016-06-16T11:17:46.008Z,996.72
2016-06-16T11:18:46.073Z,996.7
2016-06-16T11:19:46.123Z,996.71
2016-06-16T11:20:46.190Z,996.66
2016-06-16T11:21:46.224Z,996.68
2016-06-16T11:22:46.274Z,996.71
2016-06-16T11:23:46.339Z,996.67
2016-06-16T11:24:46.389Z,996.67
2016-06-16T11:25:46.439Z,996.63
2016-06-16T11:26:46.504Z,996.64
2016-06-16T11:27:46.554Z,996.69
2016-06-16T11:28:46.604Z,996.61
2016-06-16T11:29:46.654Z,996.63
2016-06-16T11:30:46.720Z,996.64
2016-06-16T11:31:46.754Z,996.57
2016-06-16T11:32:46.819Z,996.55
2016-06-16T11:33:46.870Z,996.5
2016-06-16T11:34:46.935Z,996.51
2016-06-16T11:35:46.986Z,996.51
2016-06-16T11:36:47.020Z,996.5
2016-06-16T11:37:47.084Z,996.52
2016-06-16T11:38:47.150Z,996.52
2016-06-16T11:39:47.185Z,996.5
2016-06-16T11:40:47.251Z,996.51
2016-06-16T11:41:47.300Z,996.52
2016-06-16T11:42:47.350Z,996.49
2016-06-16T11:43:47.400Z,996.44
2016-06-16T11:44:47.466Z,996.41
2016-06-16T11:45:47.516Z,996.43
2016-06-16T11:46:47.582Z,996.51
2016-06-16T11:47:47.631Z,996.5
2016-06-16T11:48:47.681Z,996.52
2016-06-16T11:49:47.746Z,996.44
2016-06-16T11:50:47.796Z,996.49
2016-06-16T11:51:47.847Z,996.38
2016-06-16T11:52:47.913Z,996.4
2016-06-16T11:53:47.947Z,996.39
2016-06-16T11:54:48.012Z,996.37
2016-06-16T11:55:48.062Z,996.35
2016-06-16T11:56:48.175Z,996.41
2016-06-16T11:57:48.178Z,996.41
2016-06-16T11:58:48.228Z,996.45
2016-06-16T11:59:48.294Z,996.47
2016-06-16T12:00:48.358Z,996.46
2016-06-16T12:01:48.394Z,996.46
2016-06-16T12:02:48.459Z,996.46
2016-06-16T12:03:48.508Z,996.47
2016-06-16T12:04:48.559Z,996.44
2016-06-16T12:05:48.624Z,996.46
2016-06-16T12:06:48.674Z,996.44
2016-06-16T12:07:48.740Z,996.42
2016-06-16T12:08:48.790Z,996.44
2016-06-16T12:09:48.855Z,996.37
2016-06-16T12:10:48.905Z,996.38
2016-06-16T12:11:48.955Z,996.4
2016-06-16T12:12:49.020Z,996.37
2016-06-16T12:13:49.070Z,996.36
2016-06-16T12:14:49.137Z,996.38
2016-06-16T12:15:49.202Z,996.38
2016-06-16T12:16:49.251Z,996.37
2016-06-16T12:17:49.302Z,996.34
2016-06-16T12:18:49.383Z,996.39
2016-06-16T12:19:49.417Z,996.37
2016-06-16T12:20:49.514Z,996.36
2016-06-16T12:21:49.533Z,996.34
2016-06-16T12:22:49.583Z,996.35
2016-06-16T12:23:49.633Z,996.37
2016-06-16T12:24:49.699Z,996.38
2016-06-16T12:25:49.748Z,996.35
2016-06-16T12:26:49.798Z,996.37
2016-06-16T12:27:49.863Z,996.38
2016-06-16T12:28:49.914Z,996.34
2016-06-16T12:29:49.964Z,996.33
2016-06-16T12:30:50.030Z,996.33
2016-06-16T12:31:50.079Z,996.29
2016-06-16T12:32:50.129Z,996.23
2016-06-16T12:33:50.195Z,996.25
2016-06-16T12:34:50.260Z,996.21
2016-06-16T12:35:50.310Z,996.29
2016-06-16T12:36:50.376Z,996.26
2016-06-16T12:37:50.427Z,996.26
2016-06-16T12:38:50.476Z,996.22
2016-06-16T12:39:50.541Z,996.14
2016-06-16T12:40:50.592Z,996.18
2016-06-16T12:41:50.641Z,996.2
2016-06-16T12:42:50.706Z,996.14
2016-06-16T12:43:50.741Z,996.2
2016-06-16T12:44:50.806Z,996.15
2016-06-16T12:45:50.872Z,996.17
2016-06-16T12:46:50.907Z,996.13